Dodge, Wisconsin
Current Conditions -  °F | °C
As of 1:54 PM on Sunday 21 Dec 2014 (Local Time) from KONA Reporting Station
Haze Haze  
Wind Chill: 31°   Ceiling: 1600
Heat Index: 37°   Visibility: 5mi
Dew Point: 36°   Wind: 8mph
Humidity: 93%   Direction: 170°S
Pressure: 29.86"   Gusts: 20mph
Location:  44.13°N, 91.55°W
Report Text: KONA 211954Z AUTO 17007G17KT 5SM BR OVC016 03/02 A2986 RMK AO2
Loading
Personal Weather Stations






























Interactive Weather Map New forecast layout! Learn more

10-Day Weather Forecast

Advertisements
Track Severe Weather on mobile